• Join FlightAware (Why Join?)
  • Login
  • US Flag 
09:01PM EDT


 

Airport Tracker/Info


-or-


 

Live Flight TrackerFlight Track Log ✈ CES5792 ✈ 29-Aug-2014 ✈ ZSNJ / NKG - ZPPP / KMG

Flight Track Log - Related Links

Times and Time Zones

All times are in EDT time to prevent confusion due to time zone crossing. See the CES5792 flight status page for this flight to view local times or setup timezone preferences in your user account.

Time Position Orientation Groundspeed Altitude Reporting Facility
EDT Latitude Longitude Course Direction KTS MPH feet Rate Location/Type
01:57AM 28.3894 110.0150 249° West  Level Estimated
01:58AM 28.3408 109.9011 244° Southwest  Level Estimated
01:59AM 28.2921 109.7873 244° Southwest  Level Estimated
02:00AM 28.2434 109.6735 244° Southwest  Level Estimated
02:01AM 28.1945 109.5599 244° Southwest  Level Estimated
02:02AM 28.1456 109.4464 244° Southwest  Level Estimated
02:03AM 28.0965 109.3330 244° Southwest  Level Estimated
02:04AM 28.0474 109.2197 244° Southwest  Level Estimated
02:05AM 27.9982 109.1065 244° Southwest  Level Estimated
02:06AM 27.9488 108.9934 244° Southwest  Level Estimated
02:07AM 27.8994 108.8804 244° Southwest  Level Estimated
02:08AM 27.8499 108.7675 244° Southwest  Level Estimated
02:09AM 27.8003 108.6547 244° Southwest  Level Estimated
02:10AM 27.7506 108.5420 244° Southwest  Level Estimated
02:11AM 27.7009 108.4295 243° Southwest  Level Estimated
02:12AM 27.6510 108.3170 243° Southwest  Level Estimated
02:13AM 27.6010 108.2046 243° Southwest  Level Estimated
02:14AM 27.5510 108.0923 243° Southwest  Level Estimated
02:15AM 27.5008 107.9801 243° Southwest  Level Estimated
02:16AM 27.4506 107.8681 243° Southwest  Level Estimated
02:17AM 27.4003 107.7561 243° Southwest  Level Estimated
02:18AM 27.3499 107.6442 243° Southwest  Level Estimated
02:19AM 27.2994 107.5325 243° Southwest  Level Estimated
02:20AM 27.2488 107.4208 243° Southwest  Level Estimated
02:21AM 27.1981 107.3093 243° Southwest  Level Estimated
02:22AM 27.1474 107.1978 243° Southwest  Level Estimated
02:23AM 27.0965 107.0864 243° Southwest  Level Estimated
02:24AM 27.0455 106.9752 243° Southwest  Level Estimated
02:25AM 26.9945 106.8640 243° Southwest  Level Estimated
02:26AM 26.9434 106.7530 243° Southwest  Level Estimated
02:27AM 26.8922 106.6420 243° Southwest  Level Estimated
02:28AM 26.8409 106.5312 243° Southwest  Level Estimated
02:29AM 26.7896 106.4204 243° Southwest  Level Estimated
02:30AM 26.7381 106.3098 243° Southwest  Level Estimated
02:31AM 26.6865 106.1992 242° Southwest  Level Estimated
02:32AM 26.6349 106.0888 242° Southwest  Level Estimated
02:33AM 26.5832 105.9784 242° Southwest  Level Estimated
02:34AM 26.5314 105.8682 242° Southwest  Level Estimated
02:35AM 26.4795 105.7580 242° Southwest  Level Estimated
02:36AM 26.4275 105.6479 242° Southwest  Level Estimated
02:37AM 26.3755 105.5380 242° Southwest  Level Estimated
02:38AM 26.3233 105.4281 242° Southwest  Level Estimated
02:39AM 26.2711 105.3184 242° Southwest  Level Estimated
02:40AM 26.2188 105.2087 242° Southwest  Level Estimated
02:41AM 26.1664 105.0992 242° Southwest  Level Estimated
02:42AM 26.1140 104.9897 242° Southwest  Level Estimated
02:43AM 26.0614 104.8803 242° Southwest  Level Estimated
02:44AM 26.0088 104.7711 242° Southwest  Level Estimated
02:45AM 25.9560 104.6619 242° Southwest  Level Estimated
02:46AM 25.9032 104.5528 242° Southwest  Level Estimated
02:47AM 25.8503 104.4439 242° Southwest  Level Estimated
02:48AM 25.7974 104.3350 242° Southwest  Level Estimated
02:49AM 25.7443 104.2262 242° Southwest  Level Estimated
02:50AM 25.6912 104.1176 242° Southwest  Level Estimated
02:51AM 25.6380 104.0090 241° Southwest  Level Estimated
02:52AM 25.5847 103.9005 241° Southwest  Level Estimated
02:53AM 25.5314 103.7921 241° Southwest  Level Estimated
02:54AM 25.4779 103.6838 241° Southwest  Level Estimated
02:55AM 25.4244 103.5756 241° Southwest  Level Estimated
02:56AM 25.3708 103.4675 241° Southwest  Level Estimated
02:57AM 25.3171 103.3595 241° Southwest  Level Estimated
02:58AM 25.2633 103.2516 241° Southwest  Level Estimated
02:59AM 25.2095 103.1438 241° Southwest  Level Estimated
03:00AM 25.1556 103.0361 241° Southwest  Level Estimated
03:01AM 25.1019 102.9292 241° Southwest  Level Estimated
03:02AM 25.1019 102.9292 North  Level Estimated
03:03AM 25.1019 102.9292 North  Level Estimated
03:04AM 25.1019 102.9292 North  Level Estimated
03:05AM 25.1019 102.9292 North  Level Estimated
03:06AM 25.1019 102.9292 North  Level Estimated
03:07AM 25.1019 102.9292 North  Level Estimated
03:08AM 25.1019 102.9292 North  Level Estimated
03:09AM 25.1019 102.9292 North  Level Estimated
03:10AM 25.1019 102.9292 North  Level Estimated
03:11AM 25.1019 102.9292 North  Level Estimated
03:12AM 25.1019 102.9292 North  Level Estimated
03:13AM 25.1019 102.9292 North  Level Estimated
03:14AM 25.1019 102.9292 North  Level Estimated
03:15AM 25.1019 102.9292 North  Level Estimated
03:16AM 25.1019 102.9292 North  Level Estimated
03:17AM 25.1019 102.9292 North  Level Estimated